Time;durP1;ratioP1;P1;durP2;ratioP2;P2;SDS_P1;SDS_P2;PMS_P1;PMS_P2;Temp;Humidity;BMP_temperature;BMP_pressure;BME280_temperature;BME280_humidity;BME280_pressure;Samples;Min_cycle;Max_cycle;Signal;HPM_P1;HPM_P2
2022/07/20 00:02:11;;;;;;;5.50;4.90;;;22.80;90.70;;;;;;4955964;29;20656;-76
2022/07/20 00:04:38;;;;;;;7.17;5.10;;;22.80;91.00;;;;;;4955703;29;20207;-76
2022/07/20 00:07:05;;;;;;;6.43;5.83;;;22.70;90.90;;;;;;4955795;29;20203;-76
2022/07/20 00:12:31;;;;;;;6.13;4.60;;;22.50;91.20;;;;;;4910590;29;20291;-76
2022/07/20 00:14:58;;;;;;;6.73;4.90;;;22.50;91.70;;;;;;4899255;29;20707;-76
2022/07/20 00:17:25;;;;;;;5.40;4.57;;;22.40;91.90;;;;;;4921494;29;20237;-76
2022/07/20 00:19:52;;;;;;;5.80;4.80;;;22.40;91.90;;;;;;4954193;28;20254;-76
2022/07/20 00:22:19;;;;;;;5.23;4.30;;;22.30;92.00;;;;;;4955642;28;20198;-76
2022/07/20 00:24:47;;;;;;;5.83;4.77;;;22.20;92.30;;;;;;4955750;29;20217;-76
2022/07/20 00:27:14;;;;;;;5.50;4.40;;;22.10;92.60;;;;;;4955399;29;20225;-76
2022/07/20 00:29:40;;;;;;;5.27;4.77;;;22.00;93.10;;;;;;4955970;28;20214;-75
2022/07/20 00:32:07;;;;;;;5.60;4.90;;;22.00;93.20;;;;;;4953985;29;20614;-76
2022/07/20 00:34:34;;;;;;;7.03;4.97;;;21.90;93.10;;;;;;4954029;29;20214;-78
2022/07/20 00:37:01;;;;;;;6.60;5.20;;;21.80;93.40;;;;;;4954111;29;20569;-76
2022/07/20 00:39:28;;;;;;;6.10;5.30;;;21.70;93.60;;;;;;4955381;28;20214;-76
2022/07/20 00:41:56;;;;;;;6.73;4.90;;;21.60;94.00;;;;;;4955141;29;20198;-76
2022/07/20 00:44:23;;;;;;;5.23;4.57;;;21.50;93.90;;;;;;4955134;29;20206;-76
2022/07/20 00:46:49;;;;;;;6.33;5.00;;;21.40;94.10;;;;;;4955207;29;20198;-78
2022/07/20 00:49:16;;;;;;;9.10;8.03;;;21.40;94.60;;;;;;4954127;28;20277;-76
2022/07/20 00:51:44;;;;;;;6.50;5.13;;;21.30;94.60;;;;;;4954155;29;20722;-78
2022/07/20 00:54:12;;;;;;;5.50;4.90;;;21.30;94.80;;;;;;4947398;29;20202;-76
2022/07/20 00:56:39;;;;;;;7.00;6.07;;;21.20;95.00;;;;;;4954692;29;20305;-76
2022/07/20 00:59:09;;;;;;;6.77;4.80;;;21.10;94.70;;;;;;4954913;28;20245;-76
2022/07/20 01:01:37;;;;;;;6.40;5.30;;;21.10;94.70;;;;;;4954905;29;20202;-76
2022/07/20 01:04:04;;;;;;;6.63;5.17;;;21.00;94.90;;;;;;4953396;29;20559;-76
2022/07/20 01:06:31;;;;;;;7.03;5.13;;;21.00;94.90;;;;;;4954879;29;20190;-76
2022/07/20 01:08:58;;;;;;;8.00;5.77;;;20.90;95.10;;;;;;4954120;29;20543;-78
2022/07/20 01:11:24;;;;;;;6.43;5.30;;;20.80;94.90;;;;;;4953655;28;20574;-78
2022/07/20 01:13:51;;;;;;;6.10;5.00;;;20.80;95.30;;;;;;4955102;28;20206;-78
2022/07/20 01:16:19;;;;;;;8.00;7.20;;;20.70;95.20;;;;;;4955111;28;20284;-78
2022/07/20 01:18:46;;;;;;;8.07;7.27;;;20.70;95.60;;;;;;4955048;28;20640;-78
2022/07/20 01:21:14;;;;;;;8.00;7.30;;;20.60;95.80;;;;;;4954898;28;20228;-78
2022/07/20 01:23:41;;;;;;;6.73;5.47;;;20.60;96.30;;;;;;4955024;29;20252;-78
2022/07/20 01:26:08;;;;;;;7.07;5.70;;;20.50;96.90;;;;;;4955002;29;20429;-78
2022/07/20 01:28:35;;;;;;;8.43;7.63;;;20.30;97.10;;;;;;4954926;29;20650;-78
2022/07/20 01:31:02;;;;;;;7.27;6.57;;;20.30;97.40;;;;;;4953668;28;20654;-78
2022/07/20 01:33:28;;;;;;;5.83;4.97;;;20.20;97.80;;;;;;4953253;28;20212;-78
2022/07/20 01:35:55;;;;;;;6.83;5.67;;;20.10;97.80;;;;;;4952837;29;20315;-77
2022/07/20 01:38:23;;;;;;;6.40;5.10;;;20.10;97.80;;;;;;4953377;28;20217;-78
2022/07/20 01:40:50;;;;;;;6.53;4.80;;;20.10;98.00;;;;;;4954591;28;20315;-78
2022/07/20 01:43:17;;;;;;;8.27;7.47;;;20.00;98.20;;;;;;4953207;29;20255;-78
2022/07/20 01:45:44;;;;;;;6.57;5.10;;;20.00;98.10;;;;;;4954855;29;20560;-78
2022/07/20 01:48:11;;;;;;;6.83;6.13;;;19.90;98.60;;;;;;4954738;29;20267;-77
2022/07/20 01:50:39;;;;;;;7.07;6.37;;;19.90;98.70;;;;;;4953242;28;20236;-78
2022/07/20 01:53:07;;;;;;;5.87;5.10;;;19.90;98.70;;;;;;4954415;28;20200;-78
2022/07/20 01:55:35;;;;;;;8.53;7.37;;;19.80;98.80;;;;;;4952946;29;20200;-77
2022/07/20 01:58:02;;;;;;;8.03;7.33;;;19.80;98.80;;;;;;4952257;29;20632;-77
2022/07/20 02:00:29;;;;;;;7.60;6.90;;;19.80;99.00;;;;;;4954205;28;20220;-78
2022/07/20 02:02:56;;;;;;;6.47;5.37;;;19.70;99.20;;;;;;4954386;29;20198;-78
2022/07/20 02:05:23;;;;;;;6.57;5.17;;;19.70;99.20;;;;;;4954243;29;20256;-78
2022/07/20 02:07:50;;;;;;;6.90;5.90;;;19.70;99.50;;;;;;4953292;29;20250;-77
2022/07/20 02:10:17;;;;;;;6.47;5.77;;;19.70;99.50;;;;;;4955268;28;20220;-79
2022/07/20 02:12:45;;;;;;;6.57;5.63;;;19.70;99.70;;;;;;4953243;29;20659;-78
2022/07/20 02:16:14;;;;;;;7.50;6.80;;;19.60;99.70;;;;;;4951663;29;20693;-78
2022/07/20 02:18:05;;;;;;;9.40;7.70;;;19.60;99.90;;;;;;4952748;29;20227;-78
2022/07/20 02:20:32;;;;;;;8.37;7.67;;;19.60;99.90;;;;;;4954311;28;20711;-77
2022/07/20 02:22:59;;;;;;;7.93;7.30;;;19.50;99.90;;;;;;4952826;29;20276;-78
2022/07/20 02:25:25;;;;;;;7.93;7.13;;;19.50;99.90;;;;;;4953917;28;20251;-78
2022/07/20 02:27:53;;;;;;;7.97;7.20;;;19.50;99.90;;;;;;4953195;29;20550;-78
2022/07/20 02:30:21;;;;;;;8.70;7.80;;;19.40;99.90;;;;;;4952578;28;20219;-78
2022/07/20 02:32:48;;;;;;;9.30;8.40;;;19.40;99.90;;;;;;4954214;29;20210;-78
2022/07/20 02:35:14;;;;;;;8.40;7.70;;;19.30;99.90;;;;;;4954125;29;20742;-77
2022/07/20 02:37:42;;;;;;;8.53;7.67;;;19.20;99.90;;;;;;4952769;29;20219;-78
2022/07/20 02:40:09;;;;;;;9.00;8.10;;;19.10;99.90;;;;;;4952540;28;20218;-77
2022/07/20 02:42:36;;;;;;;9.37;8.57;;;19.10;99.90;;;;;;4952579;29;20204;-78
2022/07/20 02:45:06;;;;;;;8.80;8.00;;;19.00;99.90;;;;;;4953221;28;20211;-78
2022/07/20 02:47:41;;;;;;;8.60;7.80;;;19.00;99.90;;;;;;4956402;28;20614;-78
2022/07/20 02:50:09;;;;;;;7.80;7.10;;;19.00;99.90;;;;;;4956354;28;20221;-77
2022/07/20 02:52:36;;;;;;;8.63;7.73;;;18.90;99.90;;;;;;4958986;28;20319;-78
2022/07/20 02:55:03;;;;;;;8.00;7.33;;;18.90;99.90;;;;;;4964327;29;20668;-77
2022/07/20 02:57:29;;;;;;;8.53;7.73;;;18.90;99.90;;;;;;4959656;29;20211;-77
2022/07/20 02:59:56;;;;;;;8.33;7.43;;;18.80;99.90;;;;;;4959216;28;20218;-77
2022/07/20 03:02:24;;;;;;;8.80;8.00;;;18.90;99.90;;;;;;4970242;28;20203;-77
2022/07/20 03:04:51;;;;;;;8.83;8.03;;;18.80;99.90;;;;;;4958163;29;20207;-77
2022/07/20 03:07:18;;;;;;;8.37;7.57;;;18.80;99.90;;;;;;4955282;28;20195;-76
2022/07/20 03:09:45;;;;;;;9.20;8.40;;;18.70;99.90;;;;;;4959332;28;20843;-76
2022/07/20 03:12:12;;;;;;;9.23;8.43;;;18.70;99.90;;;;;;4960294;29;20226;-77
2022/07/20 03:14:39;;;;;;;8.70;7.90;;;18.70;99.90;;;;;;4960566;29;20215;-77
2022/07/20 03:17:05;;;;;;;8.77;7.97;;;18.60;99.90;;;;;;4960413;29;20763;-77
2022/07/20 03:19:34;;;;;;;9.23;8.43;;;18.60;99.90;;;;;;4956985;28;20649;-76
2022/07/20 03:22:00;;;;;;;9.07;8.27;;;18.60;99.90;;;;;;4957423;29;20268;-78
2022/07/20 03:24:27;;;;;;;10.00;9.00;;;18.50;99.90;;;;;;4959185;29;20575;-77
2022/07/20 03:26:54;;;;;;;9.03;8.33;;;18.40;99.90;;;;;;4959411;29;20620;-78
2022/07/20 03:29:21;;;;;;;8.77;8.00;;;18.40;99.90;;;;;;4962946;28;20199;-78
2022/07/20 03:31:48;;;;;;;8.60;7.80;;;18.40;99.90;;;;;;4962395;28;20206;-77
2022/07/20 03:34:14;;;;;;;8.40;7.60;;;18.40;99.90;;;;;;4960939;29;20214;-78
2022/07/20 03:36:42;;;;;;;8.90;8.00;;;18.40;99.90;;;;;;4963073;29;20214;-77
2022/07/20 03:39:09;;;;;;;9.20;8.40;;;18.30;99.90;;;;;;4955808;28;20202;-77
2022/07/20 03:41:36;;;;;;;8.90;8.10;;;18.30;99.90;;;;;;4963329;29;20210;-77
2022/07/20 03:44:03;;;;;;;9.60;8.77;;;18.30;99.90;;;;;;4962280;29;20202;-78
2022/07/20 03:46:30;;;;;;;9.70;8.80;;;18.30;99.90;;;;;;4963812;28;20664;-77
2022/07/20 03:48:56;;;;;;;9.70;8.80;;;18.30;99.90;;;;;;4963112;29;20230;-78
2022/07/20 03:51:23;;;;;;;8.13;7.33;;;18.20;99.90;;;;;;4962281;28;20222;-77
2022/07/20 03:53:51;;;;;;;8.07;7.23;;;18.20;99.90;;;;;;4963689;29;20210;-77
2022/07/20 03:56:18;;;;;;;7.20;5.90;;;18.20;99.90;;;;;;4964367;28;20254;-77
2022/07/20 03:58:45;;;;;;;6.63;5.67;;;18.20;99.90;;;;;;4962328;28;20206;-77
2022/07/20 04:01:12;;;;;;;6.13;5.07;;;18.20;99.90;;;;;;4963601;28;20222;-77
2022/07/20 04:03:39;;;;;;;7.37;6.37;;;18.20;99.90;;;;;;4962228;29;20194;-77
2022/07/20 04:06:06;;;;;;;9.73;6.10;;;18.20;99.90;;;;;;4961790;29;20575;-78
2022/07/20 04:08:34;;;;;;;8.23;5.70;;;18.20;99.90;;;;;;4962114;29;20270;-78
2022/07/20 04:11:02;;;;;;;7.30;5.90;;;18.20;99.90;;;;;;4963559;28;20222;-77
2022/07/20 04:13:29;;;;;;;6.30;5.10;;;18.20;99.90;;;;;;4962733;29;20266;-78
2022/07/20 04:15:55;;;;;;;7.57;5.77;;;18.30;99.90;;;;;;4962650;28;20206;-78
2022/07/20 04:18:22;;;;;;;6.87;5.40;;;18.30;99.90;;;;;;4962148;28;20284;-78
2022/07/20 04:20:49;;;;;;;9.17;5.57;;;18.40;99.90;;;;;;4961613;28;20379;-77
2022/07/20 04:23:16;;;;;;;6.40;5.70;;;18.40;99.90;;;;;;4963531;28;20210;-78
2022/07/20 04:25:43;;;;;;;7.33;5.77;;;18.40;99.90;;;;;;4964203;29;20207;-78
2022/07/20 04:28:11;;;;;;;7.00;5.73;;;18.40;99.90;;;;;;4971265;28;20229;-77
2022/07/20 04:30:38;;;;;;;6.90;5.63;;;18.40;99.90;;;;;;4962756;28;20426;-78
2022/07/20 04:33:05;;;;;;;6.83;5.50;;;18.50;99.90;;;;;;4964379;29;20207;-78
2022/07/20 04:35:32;;;;;;;8.43;6.10;;;18.50;99.90;;;;;;4964017;29;20597;-78
2022/07/20 04:37:59;;;;;;;7.07;5.23;;;18.70;99.90;;;;;;4962792;29;20222;-78
2022/07/20 04:40:26;;;;;;;7.07;4.90;;;18.80;99.90;;;;;;4963539;28;20230;-78
2022/07/20 04:42:53;;;;;;;6.50;5.10;;;18.90;99.90;;;;;;4962363;29;20240;-77
2022/07/20 04:45:22;;;;;;;5.47;4.70;;;19.10;99.90;;;;;;4962799;28;20199;-78
2022/07/20 04:47:48;;;;;;;5.67;4.70;;;19.20;99.90;;;;;;4962991;28;20199;-77
2022/07/20 04:50:15;;;;;;;7.63;6.87;;;19.30;99.90;;;;;;4963557;28;20223;-77
2022/07/20 04:52:42;;;;;;;8.07;7.27;;;19.40;99.90;;;;;;4963737;29;20253;-77
2022/07/20 04:55:09;;;;;;;7.83;7.13;;;19.50;99.90;;;;;;4961059;29;20728;-78
2022/07/20 04:57:36;;;;;;;7.50;6.80;;;19.70;99.90;;;;;;4962153;28;20215;-78
2022/07/20 05:00:04;;;;;;;6.30;5.60;;;19.80;99.90;;;;;;4961256;28;20251;-77
2022/07/20 05:02:33;;;;;;;7.40;5.27;;;20.00;99.90;;;;;;4959535;29;20215;-78
2022/07/20 05:04:59;;;;;;;9.13;8.33;;;20.10;99.90;;;;;;4962178;29;20212;-78
2022/07/20 05:07:26;;;;;;;8.43;7.63;;;20.30;99.90;;;;;;4961174;29;20259;-78
2022/07/20 05:09:53;;;;;;;7.77;7.07;;;20.40;99.90;;;;;;4960195;28;20245;-78
2022/07/20 05:12:20;;;;;;;8.30;7.60;;;20.60;99.90;;;;;;4961274;29;20233;-77
2022/07/20 05:14:47;;;;;;;8.40;7.70;;;20.80;99.90;;;;;;4959071;29;20212;-77
2022/07/20 05:17:13;;;;;;;8.40;7.70;;;20.90;99.90;;;;;;4961397;28;20774;-78
2022/07/20 05:19:41;;;;;;;8.33;7.63;;;21.10;99.90;;;;;;4961764;28;20260;-77
2022/07/20 05:22:08;;;;;;;8.43;7.73;;;21.30;99.90;;;;;;4960276;29;20197;-78
2022/07/20 05:24:35;;;;;;;7.43;6.83;;;21.30;99.90;;;;;;4956703;29;20210;-78
2022/07/20 05:27:03;;;;;;;7.30;6.60;;;21.40;99.90;;;;;;4956979;29;20199;-77
2022/07/20 05:29:29;;;;;;;8.37;7.67;;;21.50;99.90;;;;;;4957417;28;20221;-77
2022/07/20 05:31:56;;;;;;;7.10;6.47;;;21.50;99.90;;;;;;4956154;29;20660;-78
2022/07/20 05:34:23;;;;;;;8.40;7.70;;;21.50;99.90;;;;;;4951023;29;20216;-79
2022/07/20 05:36:51;;;;;;;9.20;8.30;;;21.60;99.90;;;;;;4955533;28;20218;-77
2022/07/20 05:39:18;;;;;;;9.23;8.33;;;21.70;99.90;;;;;;4959685;28;20210;-77
2022/07/20 05:41:45;;;;;;;9.37;8.10;;;21.90;99.90;;;;;;4957265;29;20640;-77
2022/07/20 05:44:11;;;;;;;8.90;8.10;;;22.10;99.90;;;;;;4956813;29;20657;-78
2022/07/20 05:46:38;;;;;;;9.10;8.20;;;22.10;99.90;;;;;;4956308;29;20214;-78
2022/07/20 05:49:05;;;;;;;8.80;8.00;;;22.40;99.90;;;;;;4958480;29;20198;-77
2022/07/20 05:51:34;;;;;;;9.77;8.07;;;22.60;99.90;;;;;;4957620;28;20689;-78
2022/07/20 05:54:02;;;;;;;8.90;7.93;;;23.00;99.50;;;;;;4956065;29;20301;-77
2022/07/20 05:56:30;;;;;;;8.60;7.80;;;23.70;99.10;;;;;;4957702;29;20206;-78
2022/07/20 05:58:57;;;;;;;7.17;5.63;;;24.40;97.80;;;;;;4958794;29;20222;-78
2022/07/20 06:01:24;;;;;;;8.20;7.17;;;25.10;96.80;;;;;;4957342;28;20277;-78
2022/07/20 06:03:50;;;;;;;9.00;8.20;;;25.80;95.40;;;;;;4954953;29;20211;-78
2022/07/20 06:06:17;;;;;;;8.57;7.77;;;26.20;95.20;;;;;;4956786;29;20198;-79
2022/07/20 06:08:44;;;;;;;9.00;7.77;;;26.70;94.70;;;;;;4955568;29;20198;-78
2022/07/20 06:11:12;;;;;;;9.13;7.40;;;26.60;93.70;;;;;;4956097;28;20234;-78
2022/07/20 06:13:39;;;;;;;8.03;7.33;;;26.70;93.80;;;;;;4955931;29;20230;-77
2022/07/20 06:16:06;;;;;;;7.60;6.87;;;26.80;93.30;;;;;;4957176;29;20195;-78
2022/07/20 06:18:33;;;;;;;8.87;8.07;;;27.10;93.20;;;;;;4957020;29;20774;-78
2022/07/20 06:21:00;;;;;;;7.50;6.80;;;27.20;93.10;;;;;;4957059;28;20223;-78
2022/07/20 06:23:26;;;;;;;10.70;7.70;;;27.20;92.80;;;;;;4957383;29;20573;-79
2022/07/20 06:25:53;;;;;;;8.23;7.10;;;26.90;92.70;;;;;;4955578;28;20206;-78
2022/07/20 06:28:21;;;;;;;8.03;7.20;;;26.70;93.60;;;;;;4956191;29;20261;-78
2022/07/20 06:30:48;;;;;;;8.67;7.27;;;26.60;93.90;;;;;;4956775;28;20225;-79
2022/07/20 06:33:15;;;;;;;9.40;7.10;;;26.90;94.20;;;;;;4957750;29;20293;-78
2022/07/20 06:35:42;;;;;;;8.20;7.20;;;27.30;93.20;;;;;;4957616;29;20234;-78
2022/07/20 06:38:08;;;;;;;8.27;7.17;;;27.80;93.20;;;;;;4958354;29;20210;-79
2022/07/20 06:40:35;;;;;;;8.37;7.53;;;28.20;92.80;;;;;;4958177;28;20210;-78
2022/07/20 06:43:02;;;;;;;8.37;7.37;;;28.60;92.40;;;;;;4958180;29;20209;-78
2022/07/20 06:45:30;;;;;;;7.93;7.03;;;29.00;91.00;;;;;;4958354;29;20224;-78
2022/07/20 06:47:57;;;;;;;10.43;7.10;;;29.20;90.70;;;;;;4959687;28;20230;-79
2022/07/20 06:50:23;;;;;;;8.57;6.70;;;29.40;90.30;;;;;;4958792;28;20218;-79
2022/07/20 06:52:50;;;;;;;8.17;7.13;;;29.60;88.20;;;;;;4959404;29;20210;-79
2022/07/20 06:55:17;;;;;;;10.77;7.40;;;29.70;87.40;;;;;;4958839;29;20210;-79
2022/07/20 06:57:44;;;;;;;8.33;7.00;;;29.80;88.40;;;;;;4959526;29;20261;-78
2022/07/20 07:00:13;;;;;;;7.37;6.73;;;30.20;87.60;;;;;;4952781;28;20617;-79
2022/07/20 07:02:41;;;;;;;7.70;6.90;;;30.30;87.60;;;;;;4960195;29;20258;-78
2022/07/20 07:05:09;;;;;;;8.27;7.10;;;30.30;88.00;;;;;;4958996;29;20541;-79
2022/07/20 07:07:36;;;;;;;9.30;7.00;;;30.50;86.20;;;;;;4959555;29;20254;-79
2022/07/20 07:10:03;;;;;;;8.03;7.13;;;30.70;86.20;;;;;;4958593;28;20230;-79
2022/07/20 07:12:30;;;;;;;8.27;7.40;;;31.10;86.80;;;;;;4958476;29;20266;-79
2022/07/20 07:14:57;;;;;;;8.73;7.37;;;31.20;86.40;;;;;;4958538;29;20202;-79
2022/07/20 07:17:24;;;;;;;7.47;6.77;;;31.40;86.10;;;;;;4957470;29;20203;-79
2022/07/20 07:19:52;;;;;;;8.87;6.67;;;31.50;85.70;;;;;;4958570;28;20223;-79
2022/07/20 07:22:19;;;;;;;8.10;7.30;;;31.80;85.00;;;;;;4961641;29;20631;-80
2022/07/20 07:24:46;;;;;;;8.37;7.27;;;31.90;83.90;;;;;;4959013;29;20195;-78
2022/07/20 07:27:12;;;;;;;8.77;6.97;;;32.30;83.90;;;;;;4956901;29;20273;-77
2022/07/20 07:29:39;;;;;;;7.67;6.87;;;32.40;83.30;;;;;;4955441;28;20215;-78
2022/07/20 07:32:06;;;;;;;8.40;7.17;;;32.40;82.80;;;;;;4958869;28;20198;-78
2022/07/20 07:34:33;;;;;;;9.30;7.00;;;32.50;82.60;;;;;;4962785;29;20210;-78
2022/07/20 07:37:02;;;;;;;10.00;6.85;;;32.50;83.70;;;;;;4962414;29;20226;-77
2022/07/20 07:39:28;;;;;;;8.30;6.60;;;32.50;84.20;;;;;;4961983;28;20234;-77
2022/07/20 07:41:55;;;;;;;7.75;7.00;;;32.60;82.60;;;;;;4962429;29;20664;-78
2022/07/20 07:44:22;;;;;;;9.50;7.40;;;32.70;82.00;;;;;;4963367;29;20239;-78
2022/07/20 07:46:49;;;;;;;8.57;7.65;;;32.70;82.50;;;;;;4962652;29;20202;-77
2022/07/20 07:49:16;;;;;;;10.63;6.80;;;32.60;83.40;;;;;;4963330;28;20198;-77
2022/07/20 07:51:43;;;;;;;8.07;7.28;;;32.90;84.50;;;;;;4961766;29;20619;-77
2022/07/20 07:54:11;;;;;;;10.05;7.10;;;33.20;81.10;;;;;;4959308;29;20207;-78
2022/07/20 07:56:38;;;;;;;10.02;7.22;;;33.70;80.70;;;;;;4960863;28;20205;-77
2022/07/20 07:59:05;;;;;;;8.05;7.25;;;33.90;79.60;;;;;;4963019;29;20258;-78
2022/07/20 08:01:34;;;;;;;11.50;7.25;;;33.80;79.50;;;;;;4961106;29;20203;-77
2022/07/20 08:04:00;;;;;;;8.02;6.78;;;34.00;79.60;;;;;;4948500;29;20282;-77
2022/07/20 08:06:28;;;;;;;7.75;6.95;;;33.60;78.90;;;;;;4956577;29;20214;-78
2022/07/20 08:08:55;;;;;;;8.65;7.00;;;33.80;79.90;;;;;;4960351;29;20191;-79
2022/07/20 08:11:23;;;;;;;8.20;7.22;;;34.20;80.50;;;;;;4962022;28;20222;-77
2022/07/20 08:13:50;;;;;;;7.47;6.68;;;34.10;81.70;;;;;;4958266;29;20202;-77
2022/07/20 08:16:16;;;;;;;7.85;7.10;;;34.20;81.50;;;;;;4959580;29;20251;-76
2022/07/20 08:18:43;;;;;;;7.93;7.13;;;34.30;79.70;;;;;;4960122;29;20269;-77
2022/07/20 08:21:10;;;;;;;7.55;6.85;;;34.20;79.40;;;;;;4957909;28;20715;-78
2022/07/20 08:23:37;;;;;;;8.45;7.03;;;34.40;80.10;;;;;;4959950;28;20278;-78
2022/07/20 08:26:04;;;;;;;8.43;7.13;;;34.70;79.20;;;;;;4959870;29;20261;-77
2022/07/20 08:28:32;;;;;;;10.07;7.30;;;34.70;75.70;;;;;;4960051;29;20202;-77
2022/07/20 08:31:00;;;;;;;7.80;7.10;;;34.50;76.90;;;;;;4958612;28;20633;-78
2022/07/20 08:33:27;;;;;;;7.70;6.90;;;34.60;78.20;;;;;;4956297;29;20309;-77
2022/07/20 08:35:54;;;;;;;9.70;7.10;;;35.00;77.60;;;;;;4959453;29;20210;-78
2022/07/20 08:38:20;;;;;;;8.13;7.32;;;35.20;75.10;;;;;;4957662;28;20218;-78
2022/07/20 08:40:48;;;;;;;7.90;7.15;;;35.40;76.00;;;;;;4958250;28;20230;-78
2022/07/20 08:43:16;;;;;;;7.72;6.90;;;35.50;74.80;;;;;;4961083;28;20222;-79
2022/07/20 08:45:46;;;;;;;7.80;7.10;;;35.70;73.60;;;;;;4960916;29;20215;-77
2022/07/20 08:48:18;;;;;;;7.90;7.10;;;35.80;72.90;;;;;;4957039;29;20299;-78
2022/07/20 08:50:45;;;;;;;9.52;7.35;;;36.10;73.90;;;;;;4959671;28;20225;-78
2022/07/20 08:53:12;;;;;;;8.25;6.97;;;36.30;72.10;;;;;;4959752;28;20198;-77
2022/07/20 08:55:39;;;;;;;7.13;6.43;;;36.40;71.80;;;;;;4959795;29;20555;-78
2022/07/20 08:58:06;;;;;;;7.45;6.75;;;36.70;74.00;;;;;;4960118;29;20211;-77
2022/07/20 09:00:33;;;;;;;7.60;6.78;;;36.90;72.00;;;;;;4957948;28;20222;-78
2022/07/20 09:03:02;;;;;;;8.38;6.93;;;36.80;72.50;;;;;;4957331;29;20207;-78
2022/07/20 09:05:32;;;;;;;10.18;6.97;;;37.00;72.40;;;;;;4959373;28;20240;-78
2022/07/20 09:08:02;;;;;;;7.90;7.20;;;37.20;70.80;;;;;;4958913;29;20203;-78
2022/07/20 09:10:31;;;;;;;7.53;6.75;;;37.20;71.80;;;;;;4956858;28;20590;-77
2022/07/20 09:13:00;;;;;;;8.50;7.32;;;37.50;69.80;;;;;;4959363;29;20556;-78
2022/07/20 09:15:34;;;;;;;7.57;6.97;;;37.50;71.00;;;;;;4957616;29;20218;-78
2022/07/20 09:18:11;;;;;;;7.35;6.65;;;37.60;71.00;;;;;;4957557;29;20203;-77
2022/07/20 09:20:41;;;;;;;7.68;7.00;;;37.80;68.90;;;;;;4959121;28;20214;-77
2022/07/20 09:23:09;;;;;;;7.78;6.97;;;37.80;70.70;;;;;;4960165;29;20195;-77
2022/07/20 09:25:36;;;;;;;7.63;6.90;;;37.80;69.00;;;;;;4959802;29;20199;-77
2022/07/20 09:28:03;;;;;;;7.60;6.80;;;37.90;69.00;;;;;;4959289;29;20229;-78
2022/07/20 09:30:30;;;;;;;9.90;7.00;;;37.90;67.60;;;;;;4959911;28;20253;-78
2022/07/20 09:33:01;;;;;;;7.38;6.20;;;37.80;69.30;;;;;;4959131;29;20210;-78
2022/07/20 09:35:33;;;;;;;7.40;6.63;;;37.90;68.70;;;;;;4960159;29;20278;-78
2022/07/20 09:38:02;;;;;;;7.57;6.72;;;38.20;69.20;;;;;;4959236;29;20671;-78
2022/07/20 09:40:39;;;;;;;7.20;6.50;;;38.10;66.90;;;;;;4957063;28;20249;-78
2022/07/20 09:43:08;;;;;;;6.90;6.38;;;38.30;67.10;;;;;;4958205;29;20202;-79
2022/07/20 09:45:36;;;;;;;7.10;6.35;;;38.40;68.90;;;;;;4956192;29;20639;-79
2022/07/20 09:48:10;;;;;;;7.25;6.63;;;38.60;67.00;;;;;;4954953;28;20198;-77
2022/07/20 09:50:40;;;;;;;7.25;6.32;;;38.50;65.20;;;;;;4952809;28;20229;-76
2022/07/20 09:53:08;;;;;;;7.53;6.82;;;38.40;69.00;;;;;;4954100;29;20237;-76
2022/07/20 09:55:36;;;;;;;6.68;6.13;;;38.60;67.00;;;;;;4952718;28;20319;-76
2022/07/20 09:58:04;;;;;;;6.80;6.07;;;38.70;63.30;;;;;;4952735;29;20238;-77
2022/07/20 10:00:32;;;;;;;6.93;6.30;;;38.70;62.20;;;;;;4952841;28;20219;-76
2022/07/20 10:03:01;;;;;;;6.28;5.68;;;38.80;61.20;;;;;;4953743;29;20194;-76
2022/07/20 10:05:31;;;;;;;6.80;5.50;;;38.80;62.30;;;;;;4947426;29;20198;-77
2022/07/20 10:08:01;;;;;;;7.20;6.13;;;39.00;61.80;;;;;;4954009;28;20210;-76
2022/07/20 10:10:29;;;;;;;7.03;6.35;;;38.80;61.20;;;;;;4954052;28;20221;-76
2022/07/20 10:12:56;;;;;;;6.57;5.95;;;38.90;59.80;;;;;;4952590;29;20199;-76
2022/07/20 10:15:32;;;;;;;6.97;6.38;;;38.80;61.30;;;;;;4954368;29;20675;-77
2022/07/20 10:17:59;;;;;;;6.72;6.03;;;38.60;61.80;;;;;;4956532;29;20261;-78
2022/07/20 10:20:33;;;;;;;7.38;6.47;;;38.60;62.10;;;;;;4955933;28;20223;-79
2022/07/20 10:23:27;;;;;;;6.80;6.20;;;38.40;63.80;;;;;;4955254;29;20672;-78
2022/07/20 10:25:55;;;;;;;6.30;5.70;;;38.40;61.00;;;;;;4955867;29;20286;-78
2022/07/20 10:28:31;;;;;;;7.40;6.15;;;38.20;61.20;;;;;;4954009;29;20206;-78
2022/07/20 10:31:02;;;;;;;6.75;5.75;;;38.20;61.50;;;;;;4955500;28;20215;-78
2022/07/20 10:33:32;;;;;;;6.57;5.75;;;38.00;58.40;;;;;;4955140;29;20608;-78
2022/07/20 10:38:55;;;;;;;7.63;5.75;;;37.10;60.90;;;;;;4956017;29;20217;-77
2022/07/20 10:41:33;;;;;;;6.70;6.10;;;37.10;60.90;;;;;;4954146;28;20234;-78
2022/07/20 10:44:30;;;;;;;7.35;5.85;;;37.00;61.70;;;;;;4954335;29;20253;-77
2022/07/20 10:46:57;;;;;;;6.13;5.63;;;37.00;58.90;;;;;;4952102;29;20206;-78
2022/07/20 10:50:02;;;;;;;5.88;5.35;;;36.80;60.90;;;;;;4953323;28;20261;-78
2022/07/20 10:52:31;;;;;;;5.80;5.30;;;36.80;59.70;;;;;;4949997;29;20226;-77
2022/07/20 10:54:59;;;;;;;6.50;5.57;;;36.90;61.20;;;;;;4955089;29;20262;-78
2022/07/20 10:57:27;;;;;;;6.38;5.32;;;36.80;58.30;;;;;;4955017;29;20241;-78
2022/07/20 11:00:12;;;;;;;5.95;5.45;;;36.40;59.00;;;;;;4954605;28;20230;-78
2022/07/20 11:02:39;;;;;;;6.90;5.07;;;36.40;60.00;;;;;;4941147;29;20574;-78
2022/07/20 11:05:06;;;;;;;7.30;5.60;;;36.50;61.10;;;;;;4953405;29;20202;-78
2022/07/20 11:07:35;;;;;;;5.47;4.97;;;36.40;59.90;;;;;;4955463;28;20266;-78
2022/07/20 11:10:21;;;;;;;5.93;5.30;;;36.50;59.50;;;;;;4957647;28;20227;-77
2022/07/20 11:12:56;;;;;;;5.50;5.10;;;36.60;60.50;;;;;;4956853;29;20261;-78
2022/07/20 11:15:23;;;;;;;5.82;5.35;;;36.70;60.20;;;;;;4958573;28;20758;-77
2022/07/20 11:17:49;;;;;;;6.38;5.75;;;36.60;60.40;;;;;;4958507;29;20727;-78
2022/07/20 11:20:17;;;;;;;6.95;6.32;;;36.50;59.20;;;;;;4958252;28;20226;-77
2022/07/20 11:22:44;;;;;;;7.70;6.32;;;36.30;60.50;;;;;;4958142;29;20239;-77
2022/07/20 11:25:11;;;;;;;6.07;5.57;;;36.20;60.90;;;;;;4958547;29;20930;-80
2022/07/20 11:27:39;;;;;;;6.38;5.78;;;36.10;59.80;;;;;;4957822;29;20199;-80
2022/07/20 11:30:08;;;;;;;6.28;5.68;;;36.20;60.70;;;;;;4956948;28;20210;-79
2022/07/20 11:32:35;;;;;;;5.82;5.32;;;36.20;60.90;;;;;;4958005;28;20625;-78
2022/07/20 11:35:05;;;;;;;6.20;5.70;;;36.30;60.00;;;;;;4958411;28;20199;-78
2022/07/20 11:37:32;;;;;;;8.73;6.10;;;36.10;60.70;;;;;;4958750;28;20202;-80
2022/07/20 11:39:58;;;;;;;6.15;5.60;;;35.90;59.90;;;;;;4956947;28;20758;-80
2022/07/20 11:42:25;;;;;;;6.00;5.45;;;35.80;61.50;;;;;;4958357;29;20279;-80
2022/07/20 11:45:00;;;;;;;5.97;5.47;;;35.90;62.10;;;;;;4956904;29;20206;-79
2022/07/20 11:47:28;;;;;;;6.88;6.18;;;35.80;62.50;;;;;;4958137;29;20194;-80
2022/07/20 11:50:09;;;;;;;7.78;6.03;;;35.90;64.00;;;;;;4957425;28;20226;-80
2022/07/20 11:52:41;;;;;;;7.35;6.65;;;35.70;64.10;;;;;;4960252;28;20206;-78
2022/07/20 11:55:09;;;;;;;9.27;6.18;;;35.60;62.60;;;;;;4959335;28;20199;-78
2022/07/20 11:57:36;;;;;;;9.77;5.95;;;35.30;63.10;;;;;;4956549;29;20229;-80
2022/07/20 12:00:06;;;;;;;6.55;5.80;;;35.40;63.10;;;;;;4957316;28;20651;-80
2022/07/20 12:02:38;;;;;;;7.53;6.22;;;35.30;62.00;;;;;;4958179;28;20700;-80
2022/07/20 12:05:06;;;;;;;6.72;6.00;;;35.30;64.90;;;;;;4959306;29;20204;-79
2022/07/20 12:10:18;;;;;;;6.30;5.80;;;35.30;64.30;;;;;;4954679;28;20219;-79
2022/07/20 12:12:45;;;;;;;7.90;6.20;;;35.10;65.20;;;;;;4956837;29;20304;-80
2022/07/20 12:15:14;;;;;;;7.40;6.32;;;34.90;64.40;;;;;;4950094;29;20213;-80
2022/07/20 12:17:49;;;;;;;9.02;6.60;;;34.70;66.80;;;;;;4957379;28;20207;-80
2022/07/20 12:20:16;;;;;;;7.05;6.45;;;34.60;66.10;;;;;;4960007;28;20698;-79
2022/07/20 12:22:51;;;;;;;6.60;6.00;;;34.70;66.40;;;;;;4956591;29;20210;-80
2022/07/20 12:25:18;;;;;;;7.25;6.47;;;34.80;65.70;;;;;;4956289;28;20208;-78
2022/07/20 12:27:47;;;;;;;7.72;6.30;;;34.80;66.00;;;;;;4957705;29;20236;-78
2022/07/20 12:30:29;;;;;;;7.38;6.20;;;34.80;65.00;;;;;;4955462;28;20229;-80
2022/07/20 12:33:06;;;;;;;7.25;6.65;;;34.90;65.40;;;;;;4955040;29;20210;-79
2022/07/20 12:35:34;;;;;;;6.75;6.07;;;35.00;66.40;;;;;;4956942;28;20198;-79
2022/07/20 12:38:01;;;;;;;6.97;6.28;;;35.30;65.90;;;;;;4957360;29;20420;-80
2022/07/20 12:40:42;;;;;;;6.88;6.28;;;35.40;66.10;;;;;;4956348;28;20227;-79
2022/07/20 12:43:29;;;;;;;7.43;6.30;;;35.50;65.30;;;;;;4951483;28;20190;-76
2022/07/20 12:46:00;;;;;;;9.85;6.60;;;35.70;65.10;;;;;;4957278;29;20199;-78
2022/07/20 12:48:27;;;;;;;8.02;6.63;;;35.60;64.70;;;;;;4955779;29;20202;-79
2022/07/20 12:50:54;;;;;;;7.78;6.70;;;35.30;66.40;;;;;;4955267;28;20305;-75
2022/07/20 12:53:21;;;;;;;8.38;6.78;;;35.00;66.20;;;;;;4954977;29;20203;-76
2022/07/20 12:55:48;;;;;;;7.20;6.50;;;34.70;65.70;;;;;;4957595;29;20194;-79
2022/07/20 12:58:14;;;;;;;7.45;6.53;;;34.40;65.40;;;;;;4957014;29;20206;-79
2022/07/20 13:00:41;;;;;;;6.20;5.70;;;34.30;65.60;;;;;;4955297;28;20222;-80